Terminal Aerodrome Forecast
Issued by NWS

Home | Current Version | Previous Version | Text Only | Print | Product List | Glossary On
Versions: 1 2 3 4 5 6 7 8 9 10 11 12 13
000
FTUS44 KLZK 310500
TAFLIT
TAF
KLIT 310540Z 3106/0106 00000KT P6SM BKN100 OVC150
      TEMPO 3107/3111 5SM -RA BR OVC015
     FM311100 12004KT 5SM -RA BR SCT025 OVC040
      TEMPO 3111/3115 2SM RA BR OVC015
     FM010000 11005KT P6SM -RA SCT030 OVC040=

USA.gov is the U.S. government's official web portal to all federal, state and local government web resources and services.